Portada
METAR-TAF:

METAR-TAF

Aeroports :

First Flight Airport

Kill Devil Hills, Carolina del Nord, Estats Units d'Amèrica

latitud: 36-01N, longitud: 075-40W, altitud: 4 m

Observació

L'informe es va fer fa 5 minuts, a les 11:55 UTC
Vent 7 kt del Nord amb ràfegues de 19 kt, variant entre Nord/Nord-Oest i Nord-Est
Temperatura 2°C
Humitat 64%
Pressió 1027 hPa
Visibilitat: 16.1 km
Núvols disperses a una alçada de 2900 ft
Cel ennuvolat a una alçada de 6500 ft
Cel cobert a una alçada de 8000 ft

METAR: KFFA 211155Z AUTO 01007G19KT 340V050 10SM SCT029 BKN065 OVC080 02/M04 A3033 RMK AO2 T00181041 10243 21013

Hora: 07:00 (12:00 UTC)


TAF: manca

Observacions i pronòstics meteorològics de més de 4000 aeroports (METAR i TAF).

Les estacions disponibles són els punts grocs i vermells al mapa.

Posi el ratolí al punt desitjat per veure el nom de l'estació.

Feu clic per veure les observacions i els pronòstics meteorològics.

Per canviar el mapa: feu clic els botons verds amb una creu de color negre per apropar; al botó verd amb un guió per allunyar la imatge; o en les fletxes verdes per a mapes adjacents.


METAR-TAF: